createdAt,value
2023-02-24T00:10:50.479Z,7.21
2023-02-24T00:25:51.818Z,7.23
2023-02-24T00:40:53.190Z,7.24
2023-02-24T00:55:54.626Z,7.24
2023-02-24T01:11:16.902Z,7.24
2023-02-24T01:26:18.273Z,7.27
2023-02-24T01:41:19.872Z,7.29
2023-02-24T01:56:21.590Z,7.17
2023-02-24T02:11:23.674Z,7.17
2023-02-24T02:26:25.208Z,7.02
2023-02-24T02:41:29.651Z,6.84
2023-02-24T02:56:31.862Z,6.79
2023-02-24T03:11:33.609Z,6.81
2023-02-24T03:26:35.897Z,6.68
2023-02-24T03:41:38.666Z,6.67
2023-02-24T03:56:43.224Z,6.71
2023-02-24T04:11:47.491Z,6.68
2023-02-24T04:26:49.113Z,6.68
2023-02-24T04:41:50.615Z,6.60
2023-02-24T04:56:52.022Z,6.53
2023-02-24T05:11:53.470Z,6.61
2023-02-24T05:26:58.189Z,6.52
2023-02-24T05:42:05.981Z,6.53
2023-02-24T05:57:07.542Z,6.52
2023-02-24T06:12:09.076Z,6.37
2023-02-24T06:27:10.613Z,6.47
2023-02-24T06:42:12.043Z,6.51
2023-02-24T06:57:13.423Z,6.59
2023-02-24T07:12:20.892Z,6.62
2023-02-24T07:27:22.830Z,6.73
2023-02-24T07:42:25.442Z,6.75
2023-02-24T07:57:29.099Z,6.86
2023-02-24T08:12:30.732Z,6.94
2023-02-24T08:27:32.125Z,6.95
2023-02-24T08:42:35.225Z,7.01
2023-02-24T08:57:36.661Z,6.92
2023-02-24T09:12:41.231Z,6.66
2023-02-24T09:27:42.677Z,6.66
2023-02-24T09:42:46.869Z,6.81
2023-02-24T09:58:07.167Z,6.88
2023-02-24T10:13:14.859Z,6.73
2023-02-24T10:28:16.294Z,6.52
2023-02-24T10:43:18.501Z,6.32
2023-02-24T10:58:28.076Z,6.38
2023-02-24T11:13:48.480Z,6.59
2023-02-24T11:28:49.812Z,6.76
2023-02-24T11:43:51.181Z,6.96
2023-02-24T11:58:52.535Z,6.94
2023-02-24T12:13:53.984Z,6.97
2023-02-24T12:28:56.875Z,7.07
2023-02-24T12:43:58.329Z,7.95
2023-02-24T12:59:00.047Z,7.82
2023-02-24T13:14:01.465Z,7.91
2023-02-24T13:29:02.873Z,7.78
2023-02-24T13:44:04.306Z,7.42
2023-02-24T13:59:06.077Z,7.36
2023-02-24T14:14:07.569Z,7.43
2023-02-24T14:29:09.137Z,7.30
2023-02-24T14:44:13.114Z,7.14
2023-02-24T14:59:14.890Z,7.03
2023-02-24T15:14:16.282Z,6.87
2023-02-24T15:29:17.742Z,6.67
2023-02-24T15:44:19.105Z,6.70
2023-02-24T15:59:22.007Z,6.64
2023-02-24T16:14:23.436Z,6.63
2023-02-24T16:29:25.165Z,6.52
2023-02-24T16:44:26.675Z,6.42
2023-02-24T16:59:28.117Z,6.50
2023-02-24T17:14:29.489Z,6.39
2023-02-24T17:29:30.899Z,6.40
2023-02-24T17:44:32.306Z,6.28
2023-02-24T17:59:33.698Z,6.26
2023-02-24T18:14:35.082Z,6.26
2023-02-24T18:29:36.453Z,6.09
2023-02-24T18:44:37.858Z,5.94
2023-02-24T18:59:39.390Z,5.86
2023-02-24T19:14:40.802Z,5.77
2023-02-24T19:29:42.192Z,5.81
2023-02-24T19:44:43.590Z,5.71
2023-02-24T19:59:45.233Z,5.68
2023-02-24T20:14:46.640Z,5.59
2023-02-24T20:29:48.001Z,4.97
2023-02-24T20:44:49.385Z,4.44
2023-02-24T21:00:02.730Z,4.14
2023-02-24T21:15:04.792Z,3.82
2023-02-24T21:30:06.152Z,3.17
2023-02-24T21:45:09.787Z,2.69
2023-02-24T22:00:30.234Z,2.47
2023-02-24T22:15:31.646Z,2.57
2023-02-24T22:30:33.099Z,2.50
2023-02-24T22:45:34.539Z,2.46
2023-02-24T23:00:35.949Z,2.53
2023-02-24T23:15:38.976Z,2.58
2023-02-24T23:30:40.444Z,2.57
2023-02-24T23:45:41.989Z,2.50
